sensor_id;sensor_type;location;lat;lon;timestamp;pressure;altitude;pressure_sealevel;temperature;humidity
49461;BME280;35355;49.198;-0.368;2023-12-04T00:02:06;99858.75;;;7.35;57.36
49461;BME280;35355;49.198;-0.368;2023-12-04T00:04:31;99855.47;;;7.33;57.10
49461;BME280;35355;49.198;-0.368;2023-12-04T00:06:57;99846.78;;;7.31;57.47
49461;BME280;35355;49.198;-0.368;2023-12-04T00:09:22;99847.88;;;7.30;57.13
49461;BME280;35355;49.198;-0.368;2023-12-04T00:11:49;99838.34;;;7.27;57.72
49461;BME280;35355;49.198;-0.368;2023-12-04T00:14:15;99833.16;;;7.26;58.18
49461;BME280;35355;49.198;-0.368;2023-12-04T00:16:40;99831.53;;;7.25;58.08
49461;BME280;35355;49.198;-0.368;2023-12-04T00:19:06;99823.66;;;7.23;58.11
49461;BME280;35355;49.198;-0.368;2023-12-04T00:21:32;99819.31;;;7.22;58.60
49461;BME280;35355;49.198;-0.368;2023-12-04T00:23:57;99811.44;;;7.20;58.39
49461;BME280;35355;49.198;-0.368;2023-12-04T00:26:22;99792.72;;;7.19;58.25
49461;BME280;35355;49.198;-0.368;2023-12-04T00:28:48;99800.53;;;7.15;58.74
49461;BME280;35355;49.198;-0.368;2023-12-04T00:31:13;99798.91;;;7.14;58.90
49461;BME280;35355;49.198;-0.368;2023-12-04T00:33:38;99782.06;;;7.12;59.47
49461;BME280;35355;49.198;-0.368;2023-12-04T00:36:04;99763.06;;;7.12;59.71
49461;BME280;35355;49.198;-0.368;2023-12-04T00:38:29;99763.34;;;7.11;59.42
49461;BME280;35355;49.198;-0.368;2023-12-04T00:40:55;99747.84;;;7.06;59.73
49461;BME280;35355;49.198;-0.368;2023-12-04T00:43:20;99745.69;;;7.08;60.00
49461;BME280;35355;49.198;-0.368;2023-12-04T00:45:45;99738.91;;;7.11;59.71
49461;BME280;35355;49.198;-0.368;2023-12-04T00:48:11;99731.03;;;7.09;60.05
49461;BME280;35355;49.198;-0.368;2023-12-04T00:50:37;99731.31;;;7.08;59.90
49461;BME280;35355;49.198;-0.368;2023-12-04T00:53:02;99731.56;;;7.06;60.05
49461;BME280;35355;49.198;-0.368;2023-12-04T00:55:27;99726.16;;;7.06;60.61
49461;BME280;35355;49.198;-0.368;2023-12-04T00:57:53;99721.78;;;7.05;60.06
49461;BME280;35355;49.198;-0.368;2023-12-04T01:00:18;99708.75;;;7.02;60.04
49461;BME280;35355;49.198;-0.368;2023-12-04T01:02:43;99712.53;;;7.01;60.18
49461;BME280;35355;49.198;-0.368;2023-12-04T01:05:09;99704.66;;;6.99;59.99
49461;BME280;35355;49.198;-0.368;2023-12-04T01:07:35;99698.44;;;6.99;60.61
49461;BME280;35355;49.198;-0.368;2023-12-04T01:10:00;99689.22;;;7.00;60.83
49461;BME280;35355;49.198;-0.368;2023-12-04T01:12:26;99679.97;;;7.01;60.59
49461;BME280;35355;49.198;-0.368;2023-12-04T01:14:51;99668.31;;;7.00;60.78
49461;BME280;35355;49.198;-0.368;2023-12-04T01:17:17;99659.91;;;7.02;60.78
49461;BME280;35355;49.198;-0.368;2023-12-04T01:19:42;99653.38;;;6.98;60.74
49461;BME280;35355;49.198;-0.368;2023-12-04T01:22:07;99650.41;;;6.99;60.67
49461;BME280;35355;49.198;-0.368;2023-12-04T01:24:33;99647.94;;;6.98;60.80
49461;BME280;35355;49.198;-0.368;2023-12-04T01:26:58;99644.16;;;6.99;60.59
49461;BME280;35355;49.198;-0.368;2023-12-04T01:29:24;99639.00;;;6.97;61.42
49461;BME280;35355;49.198;-0.368;2023-12-04T01:31:49;99626.50;;;6.96;61.46
49461;BME280;35355;49.198;-0.368;2023-12-04T01:34:15;99625.97;;;6.94;61.41
49461;BME280;35355;49.198;-0.368;2023-12-04T01:36:40;99623.53;;;6.93;60.94
49461;BME280;35355;49.198;-0.368;2023-12-04T01:39:06;99621.88;;;6.92;61.69
49461;BME280;35355;49.198;-0.368;2023-12-04T01:41:32;99616.47;;;6.92;61.96
49461;BME280;35355;49.198;-0.368;2023-12-04T01:43:57;99612.69;;;6.93;61.64
49461;BME280;35355;49.198;-0.368;2023-12-04T01:46:23;99607.75;;;6.84;61.03
49461;BME280;35355;49.198;-0.368;2023-12-04T01:48:48;99616.72;;;6.90;61.67
49461;BME280;35355;49.198;-0.368;2023-12-04T01:51:14;99602.63;;;6.88;62.07
49461;BME280;35355;49.198;-0.368;2023-12-04T01:53:42;99607.78;;;6.90;61.71
49461;BME280;35355;49.198;-0.368;2023-12-04T01:56:08;99602.09;;;6.91;61.77
49461;BME280;35355;49.198;-0.368;2023-12-04T01:58:34;99594.22;;;6.90;61.76
49461;BME280;35355;49.198;-0.368;2023-12-04T02:01:00;99593.97;;;6.91;62.10
49461;BME280;35355;49.198;-0.368;2023-12-04T02:03:26;99588.81;;;6.90;61.60
49461;BME280;35355;49.198;-0.368;2023-12-04T02:05:51;99593.13;;;6.91;62.05
49461;BME280;35355;49.198;-0.368;2023-12-04T02:08:18;99584.72;;;6.92;61.75
49461;BME280;35355;49.198;-0.368;2023-12-04T02:10:44;99589.34;;;6.92;61.55
49461;BME280;35355;49.198;-0.368;2023-12-04T02:13:09;99580.41;;;6.91;62.52
49461;BME280;35355;49.198;-0.368;2023-12-04T02:15:35;99573.06;;;6.92;61.78
49461;BME280;35355;49.198;-0.368;2023-12-04T02:18:02;99569.81;;;6.90;62.24
49461;BME280;35355;49.198;-0.368;2023-12-04T02:20:35;99568.16;;;6.89;62.15
49461;BME280;35355;49.198;-0.368;2023-12-04T02:23:01;99568.16;;;6.89;62.32
49461;BME280;35355;49.198;-0.368;2023-12-04T02:25:27;99563.28;;;6.85;62.35
49461;BME280;35355;49.198;-0.368;2023-12-04T02:27:53;99561.63;;;6.84;62.55
49461;BME280;35355;49.198;-0.368;2023-12-04T02:30:21;99565.19;;;6.85;62.51
49461;BME280;35355;49.198;-0.368;2023-12-04T02:32:48;99558.38;;;6.82;62.33
49461;BME280;35355;49.198;-0.368;2023-12-04T02:35:14;99562.44;;;6.80;62.14
49461;BME280;35355;49.198;-0.368;2023-12-04T02:37:42;99563.50;;;6.79;62.43
49461;BME280;35355;49.198;-0.368;2023-12-04T02:40:08;99552.94;;;6.72;63.13
49461;BME280;35355;49.198;-0.368;2023-12-04T02:42:33;99552.94;;;6.77;62.67
49461;BME280;35355;49.198;-0.368;2023-12-04T02:44:59;99545.63;;;6.78;63.13
49461;BME280;35355;49.198;-0.368;2023-12-04T02:47:24;99547.50;;;6.77;63.20
49461;BME280;35355;49.198;-0.368;2023-12-04T02:49:50;99530.44;;;6.77;63.08
49461;BME280;35355;49.198;-0.368;2023-12-04T02:52:16;99514.69;;;6.79;63.19
49461;BME280;35355;49.198;-0.368;2023-12-04T02:54:41;99526.91;;;6.76;63.13
49461;BME280;35355;49.198;-0.368;2023-12-04T02:57:06;99516.59;;;6.78;63.62
49461;BME280;35355;49.198;-0.368;2023-12-04T02:59:32;99510.09;;;6.79;63.00
49461;BME280;35355;49.198;-0.368;2023-12-04T03:01:57;99511.19;;;6.78;63.09
49461;BME280;35355;49.198;-0.368;2023-12-04T03:04:23;99509.00;;;6.80;63.19
49461;BME280;35355;49.198;-0.368;2023-12-04T03:06:48;99497.88;;;6.82;63.32
49461;BME280;35355;49.198;-0.368;2023-12-04T03:09:13;99493.28;;;6.82;62.90
49461;BME280;35355;49.198;-0.368;2023-12-04T03:11:39;99482.44;;;6.82;62.88
49461;BME280;35355;49.198;-0.368;2023-12-04T03:14:05;99466.19;;;6.82;63.53
49461;BME280;35355;49.198;-0.368;2023-12-04T03:16:30;99472.41;;;6.83;63.43
49461;BME280;35355;49.198;-0.368;2023-12-04T03:18:56;99459.38;;;6.80;63.30
49461;BME280;35355;49.198;-0.368;2023-12-04T03:21:24;99464.53;;;6.81;63.36
49461;BME280;35355;49.198;-0.368;2023-12-04T03:23:50;99454.22;;;6.83;63.74
49461;BME280;35355;49.198;-0.368;2023-12-04T03:26:15;99451.28;;;6.85;63.72
49461;BME280;35355;49.198;-0.368;2023-12-04T03:28:40;99461.28;;;6.84;63.88
49461;BME280;35355;49.198;-0.368;2023-12-04T03:31:08;99462.91;;;6.85;63.80
49461;BME280;35355;49.198;-0.368;2023-12-04T03:33:34;99453.16;;;6.84;63.97
49461;BME280;35355;49.198;-0.368;2023-12-04T03:35:59;99463.19;;;6.84;63.40
49461;BME280;35355;49.198;-0.368;2023-12-04T03:38:25;99449.06;;;6.82;64.01
49461;BME280;35355;49.198;-0.368;2023-12-04T03:40:50;99458.31;;;6.81;63.77
49461;BME280;35355;49.198;-0.368;2023-12-04T03:43:16;99458.31;;;6.81;64.37
49461;BME280;35355;49.198;-0.368;2023-12-04T03:45:41;99455.31;;;6.77;63.67
49461;BME280;35355;49.198;-0.368;2023-12-04T03:48:06;99459.38;;;6.80;64.29
49461;BME280;35355;49.198;-0.368;2023-12-04T03:50:32;99438.50;;;6.80;63.95
49461;BME280;35355;49.198;-0.368;2023-12-04T03:52:57;99428.75;;;6.79;63.97
49461;BME280;35355;49.198;-0.368;2023-12-04T03:55:22;99421.69;;;6.78;64.66
49461;BME280;35355;49.198;-0.368;2023-12-04T03:57:48;99417.06;;;6.79;64.03
49461;BME280;35355;49.198;-0.368;2023-12-04T04:00:13;99413.53;;;6.78;64.72
49461;BME280;35355;49.198;-0.368;2023-12-04T04:02:39;99410.03;;;6.78;64.19
49461;BME280;35355;49.198;-0.368;2023-12-04T04:05:05;99405.16;;;6.75;64.24
49461;BME280;35355;49.198;-0.368;2023-12-04T04:07:30;99400.53;;;6.75;64.42
49461;BME280;35355;49.198;-0.368;2023-12-04T04:09:56;99404.03;;;6.76;64.42
49461;BME280;35355;49.198;-0.368;2023-12-04T04:12:21;99383.19;;;6.76;64.60
49461;BME280;35355;49.198;-0.368;2023-12-04T04:14:47;99386.97;;;6.75;64.75
49461;BME280;35355;49.198;-0.368;2023-12-04T04:17:12;99383.19;;;6.76;65.05
49461;BME280;35355;49.198;-0.368;2023-12-04T04:19:37;99380.47;;;6.76;64.68
49461;BME280;35355;49.198;-0.368;2023-12-04T04:22:03;99369.63;;;6.76;64.40
49461;BME280;35355;49.198;-0.368;2023-12-04T04:24:28;99369.09;;;6.79;65.15
49461;BME280;35355;49.198;-0.368;2023-12-04T04:26:54;99363.94;;;6.78;64.72
49461;BME280;35355;49.198;-0.368;2023-12-04T04:29:19;99360.94;;;6.79;65.18
49461;BME280;35355;49.198;-0.368;2023-12-04T04:31:44;99355.25;;;6.81;64.92
49461;BME280;35355;49.198;-0.368;2023-12-04T04:34:10;99346.84;;;6.82;64.90
49461;BME280;35355;49.198;-0.368;2023-12-04T04:36:35;99335.44;;;6.85;64.91
49461;BME280;35355;49.198;-0.368;2023-12-04T04:39:01;99331.66;;;6.87;65.46
49461;BME280;35355;49.198;-0.368;2023-12-04T04:41:26;99330.03;;;6.85;65.15
49461;BME280;35355;49.198;-0.368;2023-12-04T04:43:52;99328.94;;;6.87;65.27
49461;BME280;35355;49.198;-0.368;2023-12-04T04:46:18;99327.84;;;6.88;65.24
49461;BME280;35355;49.198;-0.368;2023-12-04T04:48:43;99322.41;;;6.88;65.21
49461;BME280;35355;49.198;-0.368;2023-12-04T04:51:09;99318.09;;;6.87;65.10
49461;BME280;35355;49.198;-0.368;2023-12-04T04:53:34;99307.78;;;6.89;64.71
49461;BME280;35355;49.198;-0.368;2023-12-04T04:55:59;99296.94;;;6.89;65.08
49461;BME280;35355;49.198;-0.368;2023-12-04T04:58:25;99292.59;;;6.88;65.10
49461;BME280;35355;49.198;-0.368;2023-12-04T05:00:50;99289.88;;;6.88;65.21
49461;BME280;35355;49.198;-0.368;2023-12-04T05:03:16;99286.06;;;6.89;65.40
49461;BME280;35355;49.198;-0.368;2023-12-04T05:05:41;99278.75;;;6.89;65.35
49461;BME280;35355;49.198;-0.368;2023-12-04T05:08:06;99271.44;;;6.90;64.96
49461;BME280;35355;49.198;-0.368;2023-12-04T05:10:32;99271.44;;;6.90;64.83
49461;BME280;35355;49.198;-0.368;2023-12-04T05:12:57;99260.03;;;6.88;65.32
49461;BME280;35355;49.198;-0.368;2023-12-04T05:15:23;99262.75;;;6.88;65.05
49461;BME280;35355;49.198;-0.368;2023-12-04T05:17:48;99252.72;;;6.88;65.13
49461;BME280;35355;49.198;-0.368;2023-12-04T05:20:13;99251.09;;;6.87;65.29
49461;BME280;35355;49.198;-0.368;2023-12-04T05:22:39;99243.75;;;6.88;65.15
49461;BME280;35355;49.198;-0.368;2023-12-04T05:25:05;99231.84;;;6.89;65.54
49461;BME280;35355;49.198;-0.368;2023-12-04T05:27:31;99231.03;;;6.88;65.31
49461;BME280;35355;49.198;-0.368;2023-12-04T05:29:57;99220.19;;;6.88;65.21
49461;BME280;35355;49.198;-0.368;2023-12-04T05:32:22;99212.03;;;6.88;65.13
49461;BME280;35355;49.198;-0.368;2023-12-04T05:34:47;99215.56;;;6.89;65.46
49461;BME280;35355;49.198;-0.368;2023-12-04T05:37:13;99200.38;;;6.88;65.69
49461;BME280;35355;49.198;-0.368;2023-12-04T05:39:38;99205.78;;;6.88;65.80
49461;BME280;35355;49.198;-0.368;2023-12-04T05:42:03;99190.34;;;6.88;66.05
49461;BME280;35355;49.198;-0.368;2023-12-04T05:44:29;99183.00;;;6.89;65.44
49461;BME280;35355;49.198;-0.368;2023-12-04T05:46:54;99190.06;;;6.90;65.50
49461;BME280;35355;49.198;-0.368;2023-12-04T05:49:20;99186.25;;;6.91;65.67
49461;BME280;35355;49.198;-0.368;2023-12-04T05:51:45;99180.03;;;6.90;65.71
49461;BME280;35355;49.198;-0.368;2023-12-04T05:54:10;99171.09;;;6.90;66.20
49461;BME280;35355;49.198;-0.368;2023-12-04T05:56:36;99165.66;;;6.90;65.82
49461;BME280;35355;49.198;-0.368;2023-12-04T05:59:01;99156.41;;;6.91;66.05
49461;BME280;35355;49.198;-0.368;2023-12-04T06:01:27;99151.53;;;6.93;66.37
49461;BME280;35355;49.198;-0.368;2023-12-04T06:03:52;99142.28;;;6.94;66.30
49461;BME280;35355;49.198;-0.368;2023-12-04T06:06:17;99152.06;;;6.95;66.72
49461;BME280;35355;49.198;-0.368;2023-12-04T06:08:43;99149.06;;;6.96;66.67
49461;BME280;35355;49.198;-0.368;2023-12-04T06:11:08;99143.38;;;6.98;66.73
49461;BME280;35355;49.198;-0.368;2023-12-04T06:13:33;99145.00;;;6.99;66.56
49461;BME280;35355;49.198;-0.368;2023-12-04T06:15:59;99133.88;;;7.00;66.33
49461;BME280;35355;49.198;-0.368;2023-12-04T06:18:24;99130.38;;;7.00;66.33
49461;BME280;35355;49.198;-0.368;2023-12-04T06:20:50;99118.94;;;7.03;66.50
49461;BME280;35355;49.198;-0.368;2023-12-04T06:23:15;99125.19;;;7.03;66.78
49461;BME280;35355;49.198;-0.368;2023-12-04T06:25:41;99119.75;;;7.03;66.28
49461;BME280;35355;49.198;-0.368;2023-12-04T06:28:07;99128.69;;;7.04;66.75
49461;BME280;35355;49.198;-0.368;2023-12-04T06:30:34;99129.25;;;7.06;66.71
49461;BME280;35355;49.198;-0.368;2023-12-04T06:32:59;99119.19;;;7.07;67.09
49461;BME280;35355;49.198;-0.368;2023-12-04T06:35:25;99107.53;;;7.06;66.43
49461;BME280;35355;49.198;-0.368;2023-12-04T06:37:53;99105.91;;;7.05;66.46
49461;BME280;35355;49.198;-0.368;2023-12-04T06:40:19;99105.91;;;7.05;66.80
49461;BME280;35355;49.198;-0.368;2023-12-04T06:42:45;99092.91;;;7.02;66.93
49461;BME280;35355;49.198;-0.368;2023-12-04T06:45:10;99091.81;;;7.03;66.39
49461;BME280;35355;49.198;-0.368;2023-12-04T06:47:37;99092.63;;;7.03;67.08
49461;BME280;35355;49.198;-0.368;2023-12-04T06:50:05;99088.81;;;7.05;67.17
49461;BME280;35355;49.198;-0.368;2023-12-04T06:52:31;99076.06;;;7.05;67.19
49461;BME280;35355;49.198;-0.368;2023-12-04T06:54:56;99075.78;;;7.07;66.98
49461;BME280;35355;49.198;-0.368;2023-12-04T06:57:21;99078.22;;;7.08;67.09
49461;BME280;35355;49.198;-0.368;2023-12-04T06:59:47;99077.94;;;7.10;66.90
49461;BME280;35355;49.198;-0.368;2023-12-04T07:02:12;99064.91;;;7.12;67.10
49461;BME280;35355;49.198;-0.368;2023-12-04T07:04:37;99062.22;;;7.12;67.06
49461;BME280;35355;49.198;-0.368;2023-12-04T07:07:03;99063.25;;;7.16;67.62
49461;BME280;35355;49.198;-0.368;2023-12-04T07:09:31;99049.97;;;7.14;67.54
49461;BME280;35355;49.198;-0.368;2023-12-04T07:11:57;99056.47;;;7.18;67.71
49461;BME280;35355;49.198;-0.368;2023-12-04T07:14:23;99046.16;;;7.20;67.75
49461;BME280;35355;49.198;-0.368;2023-12-04T07:16:48;99048.31;;;7.24;67.44
49461;BME280;35355;49.198;-0.368;2023-12-04T07:19:14;99032.53;;;7.26;67.58
49461;BME280;35355;49.198;-0.368;2023-12-04T07:21:41;99036.59;;;7.28;67.82
49461;BME280;35355;49.198;-0.368;2023-12-04T07:24:06;99037.94;;;7.31;68.29
49461;BME280;35355;49.198;-0.368;2023-12-04T07:26:33;99028.94;;;7.35;67.75
49461;BME280;35355;49.198;-0.368;2023-12-04T07:28:58;99022.94;;;7.38;67.90
49461;BME280;35355;49.198;-0.368;2023-12-04T07:31:24;99021.31;;;7.43;68.01
49461;BME280;35355;49.198;-0.368;2023-12-04T07:33:51;99008.75;;;7.47;68.70
49461;BME280;35355;49.198;-0.368;2023-12-04T07:36:17;99014.44;;;7.50;68.51
49461;BME280;35355;49.198;-0.368;2023-12-04T07:38:42;99013.06;;;7.53;68.65
49461;BME280;35355;49.198;-0.368;2023-12-04T07:41:07;99003.00;;;7.53;68.19
49461;BME280;35355;49.198;-0.368;2023-12-04T07:43:33;98995.38;;;7.55;68.69
49461;BME280;35355;49.198;-0.368;2023-12-04T07:45:58;98995.09;;;7.57;68.48
49461;BME280;35355;49.198;-0.368;2023-12-04T07:48:23;98987.50;;;7.59;68.73
49461;BME280;35355;49.198;-0.368;2023-12-04T07:50:49;98986.09;;;7.62;68.48
49461;BME280;35355;49.198;-0.368;2023-12-04T07:53:14;98997.50;;;7.64;68.26
49461;BME280;35355;49.198;-0.368;2023-12-04T07:55:39;98996.41;;;7.65;68.82
49461;BME280;35355;49.198;-0.368;2023-12-04T07:58:05;98989.06;;;7.65;68.97
49461;BME280;35355;49.198;-0.368;2023-12-04T08:00:30;98998.31;;;7.64;68.44
49461;BME280;35355;49.198;-0.368;2023-12-04T08:02:55;99003.72;;;7.64;68.46
49461;BME280;35355;49.198;-0.368;2023-12-04T08:05:21;98999.13;;;7.65;68.66
49461;BME280;35355;49.198;-0.368;2023-12-04T08:07:47;98988.78;;;7.67;68.58
49461;BME280;35355;49.198;-0.368;2023-12-04T08:10:12;98992.00;;;7.69;68.86
49461;BME280;35355;49.198;-0.368;2023-12-04T08:12:37;98985.50;;;7.70;68.85
49461;BME280;35355;49.198;-0.368;2023-12-04T08:15:04;98977.06;;;7.71;69.04
49461;BME280;35355;49.198;-0.368;2023-12-04T08:17:29;98970.53;;;7.72;68.75
49461;BME280;35355;49.198;-0.368;2023-12-04T08:19:55;98971.88;;;7.75;69.24
49461;BME280;35355;49.198;-0.368;2023-12-04T08:22:20;98968.59;;;7.78;69.19
49461;BME280;35355;49.198;-0.368;2023-12-04T08:24:46;98968.31;;;7.80;69.25
49461;BME280;35355;49.198;-0.368;2023-12-04T08:27:11;98966.38;;;7.80;68.76
49461;BME280;35355;49.198;-0.368;2023-12-04T08:29:39;98960.94;;;7.80;69.20
49461;BME280;35355;49.198;-0.368;2023-12-04T08:32:05;98959.88;;;7.81;69.17
49461;BME280;35355;49.198;-0.368;2023-12-04T08:34:30;98952.00;;;7.80;69.15
49461;BME280;35355;49.198;-0.368;2023-12-04T08:36:56;98950.59;;;7.82;69.47
49461;BME280;35355;49.198;-0.368;2023-12-04T08:39:21;98945.69;;;7.84;69.30
49461;BME280;35355;49.198;-0.368;2023-12-04T08:41:47;98940.78;;;7.86;69.59
49461;BME280;35355;49.198;-0.368;2023-12-04T08:44:13;98930.97;;;7.90;69.81
49461;BME280;35355;49.198;-0.368;2023-12-04T08:46:39;98943.16;;;7.93;69.94
49461;BME280;35355;49.198;-0.368;2023-12-04T08:49:05;98939.03;;;7.96;69.96
49461;BME280;35355;49.198;-0.368;2023-12-04T08:51:30;98940.09;;;8.00;69.88
49461;BME280;35355;49.198;-0.368;2023-12-04T08:53:56;98937.63;;;8.03;69.87
49461;BME280;35355;49.198;-0.368;2023-12-04T08:56:21;98924.53;;;8.05;70.33
49461;BME280;35355;49.198;-0.368;2023-12-04T08:58:46;98920.66;;;8.12;70.04
49461;BME280;35355;49.198;-0.368;2023-12-04T09:01:12;98933.38;;;8.16;70.22
49461;BME280;35355;49.198;-0.368;2023-12-04T09:03:37;98931.19;;;8.18;70.13
49461;BME280;35355;49.198;-0.368;2023-12-04T09:06:03;98930.63;;;8.21;70.17
49461;BME280;35355;49.198;-0.368;2023-12-04T09:08:28;98932.25;;;8.22;70.20
49461;BME280;35355;49.198;-0.368;2023-12-04T09:10:54;98919.75;;;8.21;70.38
49461;BME280;35355;49.198;-0.368;2023-12-04T09:13:21;98916.44;;;8.24;70.39
49461;BME280;35355;49.198;-0.368;2023-12-04T09:15:46;98915.34;;;8.25;70.54
49461;BME280;35355;49.198;-0.368;2023-12-04T09:18:12;98907.19;;;8.25;70.33
49461;BME280;35355;49.198;-0.368;2023-12-04T09:20:37;98902.56;;;8.26;70.45
49461;BME280;35355;49.198;-0.368;2023-12-04T09:23:03;98906.59;;;8.29;70.50
49461;BME280;35355;49.198;-0.368;2023-12-04T09:25:28;98906.06;;;8.26;70.58
49461;BME280;35355;49.198;-0.368;2023-12-04T09:27:53;98899.84;;;8.26;70.85
49461;BME280;35355;49.198;-0.368;2023-12-04T09:30:18;98897.13;;;8.26;70.53
49461;BME280;35355;49.198;-0.368;2023-12-04T09:32:44;98890.06;;;8.25;70.97
49461;BME280;35355;49.198;-0.368;2023-12-04T09:35:10;98885.97;;;8.28;70.89
49461;BME280;35355;49.198;-0.368;2023-12-04T09:37:35;98884.56;;;8.30;71.00
49461;BME280;35355;49.198;-0.368;2023-12-04T09:40:00;98879.34;;;8.34;70.92
49461;BME280;35355;49.198;-0.368;2023-12-04T09:42:26;98881.75;;;8.35;71.17
49461;BME280;35355;49.198;-0.368;2023-12-04T09:44:53;98879.00;;;8.40;71.56
49461;BME280;35355;49.198;-0.368;2023-12-04T09:47:20;98867.81;;;8.42;71.52
49461;BME280;35355;49.198;-0.368;2023-12-04T09:49:47;98878.66;;;8.47;71.47
49461;BME280;35355;49.198;-0.368;2023-12-04T09:52:12;98874.84;;;8.48;71.56
49461;BME280;35355;49.198;-0.368;2023-12-04T09:54:38;98871.53;;;8.51;71.52
49461;BME280;35355;49.198;-0.368;2023-12-04T09:57:05;98874.47;;;8.55;71.78
49461;BME280;35355;49.198;-0.368;2023-12-04T09:59:31;98866.03;;;8.56;71.82
49461;BME280;35355;49.198;-0.368;2023-12-04T10:01:57;98860.00;;;8.59;71.83
49461;BME280;35355;49.198;-0.368;2023-12-04T10:04:23;98865.63;;;8.63;71.99
49461;BME280;35355;49.198;-0.368;2023-12-04T10:06:52;98859.91;;;8.65;71.92
49461;BME280;35355;49.198;-0.368;2023-12-04T10:09:18;98852.28;;;8.67;72.03
49461;BME280;35355;49.198;-0.368;2023-12-04T10:11:46;98855.19;;;8.70;71.97
49461;BME280;35355;49.198;-0.368;2023-12-04T10:14:19;98852.97;;;8.72;72.07
49461;BME280;35355;49.198;-0.368;2023-12-04T10:16:45;98854.31;;;8.75;72.31
49461;BME280;35355;49.198;-0.368;2023-12-04T10:21:44;98843.38;;;8.80;72.40
49461;BME280;35355;49.198;-0.368;2023-12-04T10:24:09;98832.47;;;8.80;72.41
49461;BME280;35355;49.198;-0.368;2023-12-04T10:26:35;98832.91;;;8.87;72.41
49461;BME280;35355;49.198;-0.368;2023-12-04T10:29:02;98840.47;;;8.90;72.46
49461;BME280;35355;49.198;-0.368;2023-12-04T10:31:34;98830.88;;;8.93;72.43
49461;BME280;35355;49.198;-0.368;2023-12-04T10:34:00;98828.41;;;8.97;72.52
49461;BME280;35355;49.198;-0.368;2023-12-04T10:36:25;98818.00;;;8.99;72.68
49461;BME280;35355;49.198;-0.368;2023-12-04T10:39:00;98814.19;;;9.00;72.13
49461;BME280;35355;49.198;-0.368;2023-12-04T10:41:26;98809.78;;;9.04;72.76
49461;BME280;35355;49.198;-0.368;2023-12-04T10:43:52;98805.94;;;9.05;72.89
49461;BME280;35355;49.198;-0.368;2023-12-04T10:46:21;98803.13;;;9.10;72.77
49461;BME280;35355;49.198;-0.368;2023-12-04T10:48:47;98798.47;;;9.10;72.69
49461;BME280;35355;49.198;-0.368;2023-12-04T10:51:12;98796.28;;;9.12;72.95
49461;BME280;35355;49.198;-0.368;2023-12-04T10:53:38;98791.03;;;9.16;72.89
49461;BME280;35355;49.198;-0.368;2023-12-04T10:56:09;98788.00;;;9.18;72.91
49461;BME280;35355;49.198;-0.368;2023-12-04T10:58:36;98785.81;;;9.20;73.01
49461;BME280;35355;49.198;-0.368;2023-12-04T11:01:06;98783.59;;;9.22;73.04
49461;BME280;35355;49.198;-0.368;2023-12-04T11:03:42;98775.13;;;9.23;73.05
49461;BME280;35355;49.198;-0.368;2023-12-04T11:06:10;98771.78;;;9.26;73.06
49461;BME280;35355;49.198;-0.368;2023-12-04T11:08:37;98766.84;;;9.28;73.08
49461;BME280;35355;49.198;-0.368;2023-12-04T11:11:05;98769.25;;;9.30;72.96
49461;BME280;35355;49.198;-0.368;2023-12-04T11:13:37;98771.41;;;9.33;72.98
49461;BME280;35355;49.198;-0.368;2023-12-04T11:18:36;98761.00;;;9.35;72.79
49461;BME280;35355;49.198;-0.368;2023-12-04T11:21:07;98760.41;;;9.38;72.90
49461;BME280;35355;49.198;-0.368;2023-12-04T11:23:34;98748.91;;;9.41;73.26
49461;BME280;35355;49.198;-0.368;2023-12-04T11:26:00;98750.72;;;9.46;73.21
49461;BME280;35355;49.198;-0.368;2023-12-04T11:28:27;98747.69;;;9.47;73.60
49461;BME280;35355;49.198;-0.368;2023-12-04T11:30:53;98740.84;;;9.50;73.12
49461;BME280;35355;49.198;-0.368;2023-12-04T11:33:20;98739.22;;;9.49;73.78
49461;BME280;35355;49.198;-0.368;2023-12-04T11:35:45;98733.75;;;9.49;73.31
49461;BME280;35355;49.198;-0.368;2023-12-04T11:38:13;98735.38;;;9.50;73.21
49461;BME280;35355;49.198;-0.368;2023-12-04T11:40:40;98730.06;;;9.45;73.49
49461;BME280;35355;49.198;-0.368;2023-12-04T11:43:27;98732.19;;;9.48;73.13
49461;BME280;35355;49.198;-0.368;2023-12-04T11:45:53;98726.72;;;9.48;73.62
49461;BME280;35355;49.198;-0.368;2023-12-04T11:48:25;98721.28;;;9.48;73.05
49461;BME280;35355;49.198;-0.368;2023-12-04T11:50:50;98724.00;;;9.48;73.48
49461;BME280;35355;49.198;-0.368;2023-12-04T11:53:18;98725.09;;;9.47;73.52
49461;BME280;35355;49.198;-0.368;2023-12-04T11:55:43;98719.66;;;9.47;73.71
49461;BME280;35355;49.198;-0.368;2023-12-04T11:58:11;98716.94;;;9.47;73.64
49461;BME280;35355;49.198;-0.368;2023-12-04T12:00:37;98716.63;;;9.48;73.83
49461;BME280;35355;49.198;-0.368;2023-12-04T12:03:05;98717.44;;;9.49;73.84
49461;BME280;35355;49.198;-0.368;2023-12-04T12:05:32;98713.59;;;9.50;73.86
49461;BME280;35355;49.198;-0.368;2023-12-04T12:08:02;98715.22;;;9.51;73.76
49461;BME280;35355;49.198;-0.368;2023-12-04T12:10:29;98708.94;;;9.51;73.82
49461;BME280;35355;49.198;-0.368;2023-12-04T12:12:55;98704.03;;;9.53;73.99
49461;BME280;35355;49.198;-0.368;2023-12-04T12:15:21;98702.09;;;9.53;74.18
49461;BME280;35355;49.198;-0.368;2023-12-04T12:17:47;98705.34;;;9.55;74.30
49461;BME280;35355;49.198;-0.368;2023-12-04T12:20:14;98711.28;;;9.57;74.05
49461;BME280;35355;49.198;-0.368;2023-12-04T12:22:40;98704.72;;;9.58;74.19
49461;BME280;35355;49.198;-0.368;2023-12-04T12:25:12;98705.22;;;9.60;74.04
49461;BME280;35355;49.198;-0.368;2023-12-04T12:27:38;98704.91;;;9.62;74.18
49461;BME280;35355;49.198;-0.368;2023-12-04T12:30:04;98705.41;;;9.64;74.43
49461;BME280;35355;49.198;-0.368;2023-12-04T12:32:33;98696.94;;;9.65;74.09
49461;BME280;35355;49.198;-0.368;2023-12-04T12:34:58;98709.13;;;9.68;74.19
49461;BME280;35355;49.198;-0.368;2023-12-04T12:37:24;98701.16;;;9.72;74.22
49461;BME280;35355;49.198;-0.368;2023-12-04T12:39:49;98697.81;;;9.75;74.50
49461;BME280;35355;49.198;-0.368;2023-12-04T12:42:23;98689.53;;;9.80;74.10
49461;BME280;35355;49.198;-0.368;2023-12-04T12:44:49;98691.31;;;9.84;74.23
49461;BME280;35355;49.198;-0.368;2023-12-04T12:47:15;98694.75;;;9.90;74.49
49461;BME280;35355;49.198;-0.368;2023-12-04T12:49:40;98688.69;;;9.93;74.46
49461;BME280;35355;49.198;-0.368;2023-12-04T12:52:06;98688.56;;;9.98;74.29
49461;BME280;35355;49.198;-0.368;2023-12-04T12:54:33;98686.34;;;10.00;74.15
49461;BME280;35355;49.198;-0.368;2023-12-04T12:57:01;98689.25;;;10.04;74.36
49461;BME280;35355;49.198;-0.368;2023-12-04T12:59:27;98682.38;;;10.07;74.17